sensor_id;sensor_type;location;lat;lon;timestamp;pressure;altitude;pressure_sealevel;temperature;humidity
31403;BME280;18039;52.188;21.024;2023-02-14T00:01:18;78421.81;;;-141.45;86.38
31403;BME280;18039;52.188;21.024;2023-02-14T00:03:46;78413.72;;;-141.45;86.54
31403;BME280;18039;52.188;21.024;2023-02-14T00:06:15;78415.75;;;-141.45;86.61
31403;BME280;18039;52.188;21.024;2023-02-14T00:08:43;78409.66;;;-141.45;86.30
31403;BME280;18039;52.188;21.024;2023-02-14T00:11:11;78405.59;;;-141.45;86.63
31403;BME280;18039;52.188;21.024;2023-02-14T00:13:40;78429.94;;;-141.45;87.04
31403;BME280;18039;52.188;21.024;2023-02-14T00:16:27;78429.94;;;-141.45;86.81
31403;BME280;18039;52.188;21.024;2023-02-14T00:18:55;78438.06;;;-141.45;86.72
31403;BME280;18039;52.188;21.024;2023-02-14T00:21:34;78425.88;;;-141.45;86.70
31403;BME280;18039;52.188;21.024;2023-02-14T00:24:10;78434.00;;;-141.45;87.26
31403;BME280;18039;52.188;21.024;2023-02-14T00:26:37;78434.00;;;-141.45;87.23
31403;BME280;18039;52.188;21.024;2023-02-14T00:29:08;78438.06;;;-141.45;86.69
31403;BME280;18039;52.188;21.024;2023-02-14T00:31:36;78434.00;;;-141.45;86.33
31403;BME280;18039;52.188;21.024;2023-02-14T00:34:05;78446.16;;;-141.45;86.52
31403;BME280;18039;52.188;21.024;2023-02-14T00:36:32;78440.06;;;-141.45;86.68
31403;BME280;18039;52.188;21.024;2023-02-14T00:39:04;78442.09;;;-141.45;86.69
31403;BME280;18039;52.188;21.024;2023-02-14T00:41:33;78446.16;;;-141.45;86.73
31403;BME280;18039;52.188;21.024;2023-02-14T00:44:01;78444.13;;;-141.45;86.73
31403;BME280;18039;52.188;21.024;2023-02-14T00:46:28;78456.31;;;-141.45;86.86
31403;BME280;18039;52.188;21.024;2023-02-14T00:48:56;78462.38;;;-141.45;87.37
31403;BME280;18039;52.188;21.024;2023-02-14T00:51:23;78466.44;;;-141.45;87.43
31403;BME280;18039;52.188;21.024;2023-02-14T00:53:51;78454.28;;;-141.45;87.21
31403;BME280;18039;52.188;21.024;2023-02-14T00:56:19;78458.34;;;-141.45;87.43
31403;BME280;18039;52.188;21.024;2023-02-14T00:58:47;78450.22;;;-141.45;87.36
31403;BME280;18039;52.188;21.024;2023-02-14T01:01:17;78458.34;;;-141.45;87.76
31403;BME280;18039;52.188;21.024;2023-02-14T01:03:45;78466.44;;;-141.45;87.61
31403;BME280;18039;52.188;21.024;2023-02-14T01:06:12;78454.28;;;-141.45;87.96
31403;BME280;18039;52.188;21.024;2023-02-14T01:08:39;78466.44;;;-141.45;88.09
31403;BME280;18039;52.188;21.024;2023-02-14T01:11:08;78466.44;;;-141.45;88.41
31403;BME280;18039;52.188;21.024;2023-02-14T01:13:36;78466.44;;;-141.45;88.32
31403;BME280;18039;52.188;21.024;2023-02-14T01:16:08;78470.50;;;-141.45;88.97
31403;BME280;18039;52.188;21.024;2023-02-14T01:18:36;78458.34;;;-141.45;88.18
31403;BME280;18039;52.188;21.024;2023-02-14T01:21:18;78478.63;;;-141.45;88.84
31403;BME280;18039;52.188;21.024;2023-02-14T01:23:49;78482.66;;;-141.45;89.16
31403;BME280;18039;52.188;21.024;2023-02-14T01:26:18;78496.88;;;-141.45;89.68
31403;BME280;18039;52.188;21.024;2023-02-14T01:28:46;78502.94;;;-141.45;89.60
31403;BME280;18039;52.188;21.024;2023-02-14T01:31:17;78498.91;;;-141.45;90.08
31403;BME280;18039;52.188;21.024;2023-02-14T01:33:46;78490.78;;;-141.45;89.50
31403;BME280;18039;52.188;21.024;2023-02-14T01:36:31;78498.91;;;-141.45;89.87
31403;BME280;18039;52.188;21.024;2023-02-14T01:39:01;78511.06;;;-141.45;89.90
31403;BME280;18039;52.188;21.024;2023-02-14T01:41:32;78498.91;;;-141.45;90.21
31403;BME280;18039;52.188;21.024;2023-02-14T01:44:05;78500.94;;;-141.45;90.30
31403;BME280;18039;52.188;21.024;2023-02-14T01:46:34;78507.00;;;-141.45;90.97
31403;BME280;18039;52.188;21.024;2023-02-14T01:51:39;78502.94;;;-141.45;90.97
31403;BME280;18039;52.188;21.024;2023-02-14T01:54:08;78502.94;;;-141.45;91.35
31403;BME280;18039;52.188;21.024;2023-02-14T01:56:40;78502.94;;;-141.45;90.58
31403;BME280;18039;52.188;21.024;2023-02-14T01:59:13;78523.25;;;-141.45;91.29
31403;BME280;18039;52.188;21.024;2023-02-14T02:01:44;78515.13;;;-141.45;91.73
31403;BME280;18039;52.188;21.024;2023-02-14T02:04:16;78511.06;;;-141.45;91.69
31403;BME280;18039;52.188;21.024;2023-02-14T02:06:50;78507.00;;;-141.45;92.01
31403;BME280;18039;52.188;21.024;2023-02-14T02:09:43;78519.19;;;-141.45;91.50
31403;BME280;18039;52.188;21.024;2023-02-14T02:12:09;78517.16;;;-141.45;92.22
31403;BME280;18039;52.188;21.024;2023-02-14T02:14:36;78525.25;;;-141.45;92.42
31403;BME280;18039;52.188;21.024;2023-02-14T02:29:24;78543.53;;;-141.45;92.63
31403;BME280;18039;52.188;21.024;2023-02-14T02:39:52;78553.66;;;-141.45;92.83
31403;BME280;18039;52.188;21.024;2023-02-14T02:42:39;78551.63;;;-141.45;92.72
31403;BME280;18039;52.188;21.024;2023-02-14T02:45:23;78565.81;;;-141.45;92.95
31403;BME280;18039;52.188;21.024;2023-02-14T02:48:13;78567.84;;;-141.45;93.36
31403;BME280;18039;52.188;21.024;2023-02-14T02:50:46;78563.81;;;-141.45;93.48
31403;BME280;18039;52.188;21.024;2023-02-14T02:56:17;78575.97;;;-141.45;93.12
31403;BME280;18039;52.188;21.024;2023-02-14T02:59:10;78565.81;;;-141.45;93.01
31403;BME280;18039;52.188;21.024;2023-02-14T03:02:19;78575.97;;;-141.45;93.52
31403;BME280;18039;52.188;21.024;2023-02-14T03:04:52;78567.84;;;-141.45;93.75
31403;BME280;18039;52.188;21.024;2023-02-14T03:21:25;78608.44;;;-141.45;93.66
31403;BME280;18039;52.188;21.024;2023-02-14T03:24:12;78608.44;;;-141.45;94.21
31403;BME280;18039;52.188;21.024;2023-02-14T03:26:52;78608.44;;;-141.45;94.42
31403;BME280;18039;52.188;21.024;2023-02-14T03:29:38;78614.50;;;-141.45;94.49
31403;BME280;18039;52.188;21.024;2023-02-14T03:35:18;78616.53;;;-141.45;94.51
31403;BME280;18039;52.188;21.024;2023-02-14T03:38:37;78624.66;;;-141.45;93.68
31403;BME280;18039;52.188;21.024;2023-02-14T03:41:19;78626.69;;;-141.45;94.26
31403;BME280;18039;52.188;21.024;2023-02-14T03:43:56;78640.88;;;-141.45;94.14
31403;BME280;18039;52.188;21.024;2023-02-14T03:46:29;78632.75;;;-141.45;94.25
31403;BME280;18039;52.188;21.024;2023-02-14T03:48:58;78628.72;;;-141.45;94.46
31403;BME280;18039;52.188;21.024;2023-02-14T03:51:29;78624.66;;;-141.45;93.84
31403;BME280;18039;52.188;21.024;2023-02-14T03:54:02;78632.75;;;-141.45;93.81
31403;BME280;18039;52.188;21.024;2023-02-14T03:56:37;78644.94;;;-141.45;94.52
31403;BME280;18039;52.188;21.024;2023-02-14T03:59:14;78640.88;;;-141.45;94.49
31403;BME280;18039;52.188;21.024;2023-02-14T04:01:48;78634.78;;;-141.45;95.00
31403;BME280;18039;52.188;21.024;2023-02-14T04:04:20;78636.81;;;-141.45;94.57
31403;BME280;18039;52.188;21.024;2023-02-14T04:06:48;78628.72;;;-141.45;94.40
31403;BME280;18039;52.188;21.024;2023-02-14T04:09:15;78636.81;;;-141.45;95.09
31403;BME280;18039;52.188;21.024;2023-02-14T04:11:43;78636.81;;;-141.45;94.89
31403;BME280;18039;52.188;21.024;2023-02-14T04:14:12;78640.88;;;-141.45;95.14
31403;BME280;18039;52.188;21.024;2023-02-14T04:16:39;78636.81;;;-141.45;95.94
31403;BME280;18039;52.188;21.024;2023-02-14T04:19:25;78649.00;;;-141.45;95.72
31403;BME280;18039;52.188;21.024;2023-02-14T04:21:52;78634.78;;;-141.45;95.43
31403;BME280;18039;52.188;21.024;2023-02-14T04:24:19;78636.81;;;-141.45;95.09
31403;BME280;18039;52.188;21.024;2023-02-14T04:26:46;78638.84;;;-141.45;95.53
31403;BME280;18039;52.188;21.024;2023-02-14T04:29:19;78640.88;;;-141.45;95.15
31403;BME280;18039;52.188;21.024;2023-02-14T04:31:47;78632.75;;;-141.45;95.10
31403;BME280;18039;52.188;21.024;2023-02-14T04:34:14;78661.16;;;-141.45;95.69
31403;BME280;18039;52.188;21.024;2023-02-14T04:36:42;78653.03;;;-141.45;95.97
31403;BME280;18039;52.188;21.024;2023-02-14T04:39:08;78653.03;;;-141.45;95.88
31403;BME280;18039;52.188;21.024;2023-02-14T04:41:36;78661.16;;;-141.45;95.64
31403;BME280;18039;52.188;21.024;2023-02-14T04:44:03;78669.28;;;-141.45;96.46
31403;BME280;18039;52.188;21.024;2023-02-14T04:46:30;78665.22;;;-141.45;96.53
31403;BME280;18039;52.188;21.024;2023-02-14T04:48:57;78663.19;;;-141.45;96.07
31403;BME280;18039;52.188;21.024;2023-02-14T04:51:25;78673.31;;;-141.45;96.51
31403;BME280;18039;52.188;21.024;2023-02-14T04:53:53;78673.31;;;-141.45;96.54
31403;BME280;18039;52.188;21.024;2023-02-14T04:56:20;78669.28;;;-141.45;96.29
31403;BME280;18039;52.188;21.024;2023-02-14T04:58:47;78653.03;;;-141.45;96.54
31403;BME280;18039;52.188;21.024;2023-02-14T05:01:14;78673.31;;;-141.45;96.07
31403;BME280;18039;52.188;21.024;2023-02-14T05:03:41;78681.44;;;-141.45;96.15
31403;BME280;18039;52.188;21.024;2023-02-14T05:06:09;78681.44;;;-141.45;96.57
31403;BME280;18039;52.188;21.024;2023-02-14T05:08:36;78677.38;;;-141.45;96.34
31403;BME280;18039;52.188;21.024;2023-02-14T05:11:03;78677.38;;;-141.45;95.92
31403;BME280;18039;52.188;21.024;2023-02-14T05:13:31;78689.56;;;-141.45;96.56
31403;BME280;18039;52.188;21.024;2023-02-14T05:15:58;78681.44;;;-141.45;96.54
31403;BME280;18039;52.188;21.024;2023-02-14T05:18:25;78685.50;;;-141.45;96.76
31403;BME280;18039;52.188;21.024;2023-02-14T05:20:53;78697.66;;;-141.45;96.83
31403;BME280;18039;52.188;21.024;2023-02-14T05:23:20;78687.53;;;-141.45;96.89
31403;BME280;18039;52.188;21.024;2023-02-14T05:25:49;78693.63;;;-141.45;96.93
31403;BME280;18039;52.188;21.024;2023-02-14T05:28:18;78689.56;;;-141.45;96.24
31403;BME280;18039;52.188;21.024;2023-02-14T05:30:45;78697.66;;;-141.45;96.71
31403;BME280;18039;52.188;21.024;2023-02-14T05:33:13;78693.63;;;-141.45;96.90
31403;BME280;18039;52.188;21.024;2023-02-14T05:35:40;78705.78;;;-141.45;96.86
31403;BME280;18039;52.188;21.024;2023-02-14T05:38:07;78705.78;;;-141.45;96.93
31403;BME280;18039;52.188;21.024;2023-02-14T05:40:34;78709.84;;;-141.45;97.16
31403;BME280;18039;52.188;21.024;2023-02-14T05:43:01;78693.63;;;-141.45;96.64
31403;BME280;18039;52.188;21.024;2023-02-14T05:45:28;78685.50;;;-141.45;96.02
31403;BME280;18039;52.188;21.024;2023-02-14T05:47:56;78701.72;;;-141.45;96.85
31403;BME280;18039;52.188;21.024;2023-02-14T05:50:23;78693.63;;;-141.45;96.90
31403;BME280;18039;52.188;21.024;2023-02-14T05:52:53;78697.66;;;-141.45;96.96
31403;BME280;18039;52.188;21.024;2023-02-14T05:55:20;78689.56;;;-141.45;96.37
31403;BME280;18039;52.188;21.024;2023-02-14T05:57:47;78705.78;;;-141.45;96.76
31403;BME280;18039;52.188;21.024;2023-02-14T06:00:15;78701.72;;;-141.45;96.94
31403;BME280;18039;52.188;21.024;2023-02-14T06:02:42;78701.72;;;-141.45;97.27
31403;BME280;18039;52.188;21.024;2023-02-14T06:05:10;78703.75;;;-141.45;97.27
31403;BME280;18039;52.188;21.024;2023-02-14T06:07:37;78717.94;;;-141.45;97.44
31403;BME280;18039;52.188;21.024;2023-02-14T06:10:05;78697.66;;;-141.45;96.68
31403;BME280;18039;52.188;21.024;2023-02-14T06:12:35;78705.78;;;-141.45;97.00
31403;BME280;18039;52.188;21.024;2023-02-14T06:15:03;78705.78;;;-141.45;97.26
31403;BME280;18039;52.188;21.024;2023-02-14T06:17:30;78711.88;;;-141.45;97.02
31403;BME280;18039;52.188;21.024;2023-02-14T06:19:57;78726.06;;;-141.45;97.03
31403;BME280;18039;52.188;21.024;2023-02-14T06:22:24;78713.91;;;-141.45;97.03
31403;BME280;18039;52.188;21.024;2023-02-14T06:24:52;78726.06;;;-141.45;97.49
31403;BME280;18039;52.188;21.024;2023-02-14T06:27:19;78722.00;;;-141.45;97.50
31403;BME280;18039;52.188;21.024;2023-02-14T06:29:46;78719.97;;;-141.45;97.52
31403;BME280;18039;52.188;21.024;2023-02-14T06:32:13;78722.00;;;-141.45;96.94
31403;BME280;18039;52.188;21.024;2023-02-14T06:34:41;78726.06;;;-141.45;96.53
31403;BME280;18039;52.188;21.024;2023-02-14T06:37:08;78734.19;;;-141.45;96.75
31403;BME280;18039;52.188;21.024;2023-02-14T06:39:35;78726.06;;;-141.45;97.08
31403;BME280;18039;52.188;21.024;2023-02-14T06:42:03;78738.22;;;-141.45;97.00
31403;BME280;18039;52.188;21.024;2023-02-14T06:44:30;78734.19;;;-141.45;97.21
31403;BME280;18039;52.188;21.024;2023-02-14T06:46:57;78730.13;;;-141.45;97.44
31403;BME280;18039;52.188;21.024;2023-02-14T06:49:24;78738.22;;;-141.45;97.72
31403;BME280;18039;52.188;21.024;2023-02-14T06:51:51;78730.13;;;-141.45;97.76
31403;BME280;18039;52.188;21.024;2023-02-14T06:54:19;78730.13;;;-141.45;97.68
31403;BME280;18039;52.188;21.024;2023-02-14T06:56:46;78722.00;;;-141.45;97.70
31403;BME280;18039;52.188;21.024;2023-02-14T06:59:13;78717.94;;;-141.45;97.90
31403;BME280;18039;52.188;21.024;2023-02-14T07:01:40;78726.06;;;-141.45;97.79
31403;BME280;18039;52.188;21.024;2023-02-14T07:04:07;78724.03;;;-141.45;97.51
31403;BME280;18039;52.188;21.024;2023-02-14T07:06:36;78713.91;;;-141.45;96.91
31403;BME280;18039;52.188;21.024;2023-02-14T07:09:04;78713.91;;;-141.45;96.51
31403;BME280;18039;52.188;21.024;2023-02-14T07:11:31;78713.91;;;-141.45;97.14
31403;BME280;18039;52.188;21.024;2023-02-14T07:13:58;78709.84;;;-141.45;96.66
31403;BME280;18039;52.188;21.024;2023-02-14T07:16:25;78709.84;;;-141.45;96.56
31403;BME280;18039;52.188;21.024;2023-02-14T07:18:52;78726.06;;;-141.45;96.67
31403;BME280;18039;52.188;21.024;2023-02-14T07:21:19;78719.97;;;-141.45;97.18
31403;BME280;18039;52.188;21.024;2023-02-14T07:23:47;78724.03;;;-141.45;96.86
31403;BME280;18039;52.188;21.024;2023-02-14T07:26:16;78717.94;;;-141.45;96.81
31403;BME280;18039;52.188;21.024;2023-02-14T07:28:45;78730.13;;;-141.45;96.48
31403;BME280;18039;52.188;21.024;2023-02-14T07:31:15;78726.06;;;-141.45;96.55
31403;BME280;18039;52.188;21.024;2023-02-14T07:33:43;78738.22;;;-141.45;96.54
31403;BME280;18039;52.188;21.024;2023-02-14T07:36:10;78746.34;;;-141.45;96.85
31403;BME280;18039;52.188;21.024;2023-02-14T07:38:37;78750.41;;;-141.45;96.42
31403;BME280;18039;52.188;21.024;2023-02-14T07:41:04;78750.41;;;-141.45;96.95
31403;BME280;18039;52.188;21.024;2023-02-14T07:43:31;78758.53;;;-141.45;97.58
31403;BME280;18039;52.188;21.024;2023-02-14T07:46:01;78746.34;;;-141.45;97.46
31403;BME280;18039;52.188;21.024;2023-02-14T07:48:29;78730.13;;;-141.45;97.23
31403;BME280;18039;52.188;21.024;2023-02-14T07:50:59;78738.22;;;-141.45;96.72
31403;BME280;18039;52.188;21.024;2023-02-14T07:53:27;78750.41;;;-141.45;97.44
31403;BME280;18039;52.188;21.024;2023-02-14T07:55:55;78746.34;;;-141.45;96.72
31403;BME280;18039;52.188;21.024;2023-02-14T07:58:23;78750.41;;;-141.45;96.93
31403;BME280;18039;52.188;21.024;2023-02-14T08:00:50;78742.28;;;-141.45;96.41
31403;BME280;18039;52.188;21.024;2023-02-14T08:03:17;78758.53;;;-141.45;96.27
31403;BME280;18039;52.188;21.024;2023-02-14T08:05:47;78766.63;;;-141.45;96.42
31403;BME280;18039;52.188;21.024;2023-02-14T08:08:25;78795.03;;;-141.45;96.38
31403;BME280;18039;52.188;21.024;2023-02-14T08:10:52;78768.66;;;-141.45;96.91
31403;BME280;18039;52.188;21.024;2023-02-14T08:13:20;78766.63;;;-141.45;96.59
31403;BME280;18039;52.188;21.024;2023-02-14T08:15:47;78762.56;;;-141.45;95.92
31403;BME280;18039;52.188;21.024;2023-02-14T08:18:36;78758.53;;;-141.45;96.06
31403;BME280;18039;52.188;21.024;2023-02-14T08:21:06;78762.56;;;-141.45;95.90
31403;BME280;18039;52.188;21.024;2023-02-14T08:23:35;78766.63;;;-141.45;95.69
31403;BME280;18039;52.188;21.024;2023-02-14T08:26:02;78758.53;;;-141.45;95.85
31403;BME280;18039;52.188;21.024;2023-02-14T08:28:30;78756.50;;;-141.45;96.04
31403;BME280;18039;52.188;21.024;2023-02-14T08:30:59;78744.31;;;-141.45;95.61
31403;BME280;18039;52.188;21.024;2023-02-14T08:33:27;78742.28;;;-141.45;95.45
31403;BME280;18039;52.188;21.024;2023-02-14T08:35:55;78750.41;;;-141.45;95.28
31403;BME280;18039;52.188;21.024;2023-02-14T08:38:23;78738.22;;;-141.45;95.72
31403;BME280;18039;52.188;21.024;2023-02-14T08:40:50;78742.28;;;-141.45;95.37
31403;BME280;18039;52.188;21.024;2023-02-14T08:43:17;78756.50;;;-141.45;95.20
31403;BME280;18039;52.188;21.024;2023-02-14T08:45:45;78734.19;;;-141.45;94.98
31403;BME280;18039;52.188;21.024;2023-02-14T08:48:14;78726.06;;;-141.45;95.69
31403;BME280;18039;52.188;21.024;2023-02-14T08:50:41;78722.00;;;-141.45;94.67
31403;BME280;18039;52.188;21.024;2023-02-14T08:53:10;78728.09;;;-141.45;94.81
31403;BME280;18039;52.188;21.024;2023-02-14T08:55:39;78726.06;;;-141.45;94.14
31403;BME280;18039;52.188;21.024;2023-02-14T08:58:39;78744.31;;;-141.45;94.63
31403;BME280;18039;52.188;21.024;2023-02-14T09:01:13;78732.16;;;-141.45;94.38
31403;BME280;18039;52.188;21.024;2023-02-14T09:03:41;78738.22;;;-141.45;94.69
31403;BME280;18039;52.188;21.024;2023-02-14T09:06:11;78742.28;;;-141.45;94.63
31403;BME280;18039;52.188;21.024;2023-02-14T09:08:40;78734.19;;;-141.45;94.77
31403;BME280;18039;52.188;21.024;2023-02-14T09:11:17;78722.00;;;-141.45;94.82
31403;BME280;18039;52.188;21.024;2023-02-14T09:13:46;78713.91;;;-141.45;94.41
31403;BME280;18039;52.188;21.024;2023-02-14T09:16:15;78701.72;;;-141.45;93.42
31403;BME280;18039;52.188;21.024;2023-02-14T09:18:44;78705.78;;;-141.45;93.96
31403;BME280;18039;52.188;21.024;2023-02-14T09:21:16;78697.66;;;-141.45;92.83
31403;BME280;18039;52.188;21.024;2023-02-14T09:28:04;78685.50;;;-141.45;92.77
31403;BME280;18039;52.188;21.024;2023-02-14T09:30:39;78669.28;;;-141.45;92.49
31403;BME280;18039;52.188;21.024;2023-02-14T09:45:24;78596.25;;;-141.45;91.22
31403;BME280;18039;52.188;21.024;2023-02-14T09:47:56;78600.31;;;-141.45;89.68
31403;BME280;18039;52.188;21.024;2023-02-14T09:50:45;78626.69;;;-141.45;89.40
31403;BME280;18039;52.188;21.024;2023-02-14T09:53:25;78642.91;;;-141.45;90.37
31403;BME280;18039;52.188;21.024;2023-02-14T09:56:15;78661.16;;;-141.45;91.13
31403;BME280;18039;52.188;21.024;2023-02-14T10:01:31;78655.06;;;-141.45;91.19
31403;BME280;18039;52.188;21.024;2023-02-14T10:07:17;78671.31;;;-141.45;91.24
31403;BME280;18039;52.188;21.024;2023-02-14T10:10:18;78665.22;;;-141.45;91.36
31403;BME280;18039;52.188;21.024;2023-02-14T10:12:53;78661.16;;;-141.45;91.50
31403;BME280;18039;52.188;21.024;2023-02-14T10:15:35;78665.22;;;-141.45;91.36
31403;BME280;18039;52.188;21.024;2023-02-14T10:18:12;78675.34;;;-141.45;90.94
31403;BME280;18039;52.188;21.024;2023-02-14T10:20:44;78677.38;;;-141.45;91.57
31403;BME280;18039;52.188;21.024;2023-02-14T10:26:01;78653.03;;;-141.45;91.07
31403;BME280;18039;52.188;21.024;2023-02-14T10:28:33;78649.00;;;-141.45;91.02
31403;BME280;18039;52.188;21.024;2023-02-14T10:33:41;78655.06;;;-141.45;91.02
31403;BME280;18039;52.188;21.024;2023-02-14T10:36:23;78640.88;;;-141.45;91.27
31403;BME280;18039;52.188;21.024;2023-02-14T10:39:03;78640.88;;;-141.45;90.42
31403;BME280;18039;52.188;21.024;2023-02-14T10:50:38;78632.75;;;-141.45;89.57
31403;BME280;18039;52.188;21.024;2023-02-14T10:58:24;78624.66;;;-141.45;88.86
31403;BME280;18039;52.188;21.024;2023-02-14T11:01:13;78622.63;;;-141.45;88.97
31403;BME280;18039;52.188;21.024;2023-02-14T11:03:57;78624.66;;;-141.45;88.93
31403;BME280;18039;52.188;21.024;2023-02-14T11:06:29;78628.72;;;-141.45;89.08
31403;BME280;18039;52.188;21.024;2023-02-14T11:08:57;78612.47;;;-141.45;89.05
31403;BME280;18039;52.188;21.024;2023-02-14T11:11:39;78600.31;;;-141.45;89.40
31403;BME280;18039;52.188;21.024;2023-02-14T11:14:23;78584.09;;;-141.45;87.85
31403;BME280;18039;52.188;21.024;2023-02-14T11:16:54;78592.19;;;-141.45;88.50
31403;BME280;18039;52.188;21.024;2023-02-14T11:21:54;78588.13;;;-141.45;88.33
31403;BME280;18039;52.188;21.024;2023-02-14T11:24:31;78592.19;;;-141.45;88.39
31403;BME280;18039;52.188;21.024;2023-02-14T11:27:05;78571.91;;;-141.45;87.87
31403;BME280;18039;52.188;21.024;2023-02-14T11:32:14;78588.13;;;-141.45;88.84
31403;BME280;18039;52.188;21.024;2023-02-14T11:39:55;78567.84;;;-141.45;87.57
31403;BME280;18039;52.188;21.024;2023-02-14T11:45:04;78571.91;;;-141.45;88.35
31403;BME280;18039;52.188;21.024;2023-02-14T11:47:34;78551.63;;;-141.45;87.45
31403;BME280;18039;52.188;21.024;2023-02-14T11:50:22;78535.41;;;-141.45;87.50
31403;BME280;18039;52.188;21.024;2023-02-14T11:52:54;78523.25;;;-141.45;87.84
31403;BME280;18039;52.188;21.024;2023-02-14T11:55:25;78511.06;;;-141.45;86.62
31403;BME280;18039;52.188;21.024;2023-02-14T11:57:56;78511.06;;;-141.45;86.18
31403;BME280;18039;52.188;21.024;2023-02-14T12:00:24;78531.34;;;-141.45;86.42
31403;BME280;18039;52.188;21.024;2023-02-14T12:02:54;78515.13;;;-141.45;86.50
31403;BME280;18039;52.188;21.024;2023-02-14T12:05:46;78502.94;;;-141.45;85.98
31403;BME280;18039;52.188;21.024;2023-02-14T12:08:22;78502.94;;;-141.45;86.45
31403;BME280;18039;52.188;21.024;2023-02-14T12:11:10;78502.94;;;-141.45;87.14
31403;BME280;18039;52.188;21.024;2023-02-14T12:14:19;78482.66;;;-141.45;86.98
31403;BME280;18039;52.188;21.024;2023-02-14T12:17:08;78474.56;;;-141.45;85.28
31403;BME280;18039;52.188;21.024;2023-02-14T12:22:45;78500.94;;;-141.45;86.71
31403;BME280;18039;52.188;21.024;2023-02-14T12:25:20;78492.81;;;-141.45;86.47
31403;BME280;18039;52.188;21.024;2023-02-14T12:28:03;78484.69;;;-141.45;86.04
31403;BME280;18039;52.188;21.024;2023-02-14T12:30:35;78478.63;;;-141.45;86.50
31403;BME280;18039;52.188;21.024;2023-02-14T12:33:20;78486.72;;;-141.45;86.23
31403;BME280;18039;52.188;21.024;2023-02-14T12:41:48;78525.25;;;-141.45;87.61
31403;BME280;18039;52.188;21.024;2023-02-14T12:50:27;78527.28;;;-141.45;87.38
31403;BME280;18039;52.188;21.024;2023-02-14T12:53:06;78511.06;;;-141.45;88.04
31403;BME280;18039;52.188;21.024;2023-02-14T12:55:48;78486.72;;;-141.45;87.75
31403;BME280;18039;52.188;21.024;2023-02-14T12:58:35;78484.69;;;-141.45;86.96
31403;BME280;18039;52.188;21.024;2023-02-14T13:07:23;78482.66;;;-141.45;86.83
31403;BME280;18039;52.188;21.024;2023-02-14T13:10:00;78484.69;;;-141.45;87.15
31403;BME280;18039;52.188;21.024;2023-02-14T13:12:56;78470.50;;;-141.45;86.55
31403;BME280;18039;52.188;21.024;2023-02-14T13:18:57;78472.53;;;-141.45;86.76
31403;BME280;18039;52.188;21.024;2023-02-14T13:21:29;78494.84;;;-141.45;87.48
31403;BME280;18039;52.188;21.024;2023-02-14T13:24:12;78498.91;;;-141.45;87.52
31403;BME280;18039;52.188;21.024;2023-02-14T13:26:43;78494.84;;;-141.45;87.46
31403;BME280;18039;52.188;21.024;2023-02-14T13:29:21;78480.66;;;-141.45;87.72
31403;BME280;18039;52.188;21.024;2023-02-14T13:31:57;78482.66;;;-141.45;87.57
31403;BME280;18039;52.188;21.024;2023-02-14T13:34:38;78480.66;;;-141.45;87.35
31403;BME280;18039;52.188;21.024;2023-02-14T13:37:12;78482.66;;;-141.45;87.48
31403;BME280;18039;52.188;21.024;2023-02-14T13:40:05;78482.66;;;-141.45;87.98
31403;BME280;18039;52.188;21.024;2023-02-14T13:48:13;78474.56;;;-141.45;86.71
31403;BME280;18039;52.188;21.024;2023-02-14T13:53:45;78458.34;;;-141.45;86.43
31403;BME280;18039;52.188;21.024;2023-02-14T13:58:52;78442.09;;;-141.45;86.49
31403;BME280;18039;52.188;21.024;2023-02-14T14:01:39;78425.88;;;-141.45;86.32
31403;BME280;18039;52.188;21.024;2023-02-14T14:09:53;78434.00;;;-141.45;85.92
31403;BME280;18039;52.188;21.024;2023-02-14T14:12:40;78462.38;;;-141.45;86.83
31403;BME280;18039;52.188;21.024;2023-02-14T14:15:12;78482.66;;;-141.45;87.62
31403;BME280;18039;52.188;21.024;2023-02-14T14:17:44;78490.78;;;-141.45;88.23
31403;BME280;18039;52.188;21.024;2023-02-14T14:22:48;78498.91;;;-141.45;88.96
31403;BME280;18039;52.188;21.024;2023-02-14T14:25:38;78498.91;;;-141.45;89.18
31403;BME280;18039;52.188;21.024;2023-02-14T14:28:19;78494.84;;;-141.45;88.94
31403;BME280;18039;52.188;21.024;2023-02-14T14:30:47;78490.78;;;-141.45;89.33
31403;BME280;18039;52.188;21.024;2023-02-14T14:33:26;78494.84;;;-141.45;89.21
31403;BME280;18039;52.188;21.024;2023-02-14T14:36:06;78486.72;;;-141.45;89.19
31403;BME280;18039;52.188;21.024;2023-02-14T14:38:48;78482.66;;;-141.45;89.40
31403;BME280;18039;52.188;21.024;2023-02-14T14:41:17;78488.75;;;-141.45;89.46
31403;BME280;18039;52.188;21.024;2023-02-14T14:43:45;78490.78;;;-141.45;89.42
31403;BME280;18039;52.188;21.024;2023-02-14T14:46:13;78492.81;;;-141.45;89.38
31403;BME280;18039;52.188;21.024;2023-02-14T14:48:47;78494.84;;;-141.45;89.87
31403;BME280;18039;52.188;21.024;2023-02-14T14:51:27;78494.84;;;-141.45;90.19
31403;BME280;18039;52.188;21.024;2023-02-14T14:54:04;78498.91;;;-141.45;90.15
31403;BME280;18039;52.188;21.024;2023-02-14T14:56:37;78507.00;;;-141.45;90.67
31403;BME280;18039;52.188;21.024;2023-02-14T14:59:24;78507.00;;;-141.45;91.04
31403;BME280;18039;52.188;21.024;2023-02-14T15:01:54;78502.94;;;-141.45;90.93
31403;BME280;18039;52.188;21.024;2023-02-14T15:04:32;78507.00;;;-141.45;91.16
31403;BME280;18039;52.188;21.024;2023-02-14T15:07:25;78509.03;;;-141.45;91.06
31403;BME280;18039;52.188;21.024;2023-02-14T15:09:57;78502.94;;;-141.45;91.19
31403;BME280;18039;52.188;21.024;2023-02-14T15:12:25;78511.06;;;-141.45;91.65
31403;BME280;18039;52.188;21.024;2023-02-14T15:15:14;78515.13;;;-141.45;91.95
31403;BME280;18039;52.188;21.024;2023-02-14T15:17:42;78517.16;;;-141.45;91.90
31403;BME280;18039;52.188;21.024;2023-02-14T15:20:16;78523.25;;;-141.45;92.48